createdAt,value
2019-01-18T00:01:21.102Z,94960.15
2019-01-18T00:03:50.851Z,94959.86
2019-01-18T00:06:20.027Z,94957.52
2019-01-18T00:08:49.242Z,94956.40
2019-01-18T00:11:18.421Z,94961.43
2019-01-18T00:13:47.620Z,94960.06
2019-01-18T00:16:16.809Z,94974.78
2019-01-18T00:18:46.082Z,94958.68
2019-01-18T00:21:15.266Z,94969.46
2019-01-18T00:23:44.471Z,94966.56
2019-01-18T00:26:14.007Z,94964.19
2019-01-18T00:29:02.485Z,94969.87
2019-01-18T00:31:31.687Z,94975.71
2019-01-18T00:34:00.891Z,94975.34
2019-01-18T00:36:30.082Z,94973.16
2019-01-18T00:38:59.258Z,94974.53
2019-01-18T00:41:28.450Z,94977.08
2019-01-18T00:43:57.625Z,94975.09
2019-01-18T00:46:26.822Z,94986.36
2019-01-18T00:48:55.992Z,94985.52
2019-01-18T00:51:25.190Z,94988.45
2019-01-18T00:53:54.361Z,94986.63
2019-01-18T00:56:23.564Z,94981.33
2019-01-18T00:58:52.854Z,94995.50
2019-01-18T01:01:22.069Z,95003.84
2019-01-18T01:03:51.245Z,95005.86
2019-01-18T01:06:20.420Z,95011.13
2019-01-18T01:08:49.620Z,95018.19
2019-01-18T01:14:27.331Z,95031.89
2019-01-18T01:16:56.838Z,95052.78
2019-01-18T01:19:26.349Z,95052.39
2019-01-18T01:21:55.532Z,95053.36
2019-01-18T01:24:24.732Z,95048.13
2019-01-18T01:26:54.006Z,95038.44
2019-01-18T01:29:23.206Z,95059.70
2019-01-18T01:31:52.406Z,95059.26
2019-01-18T01:34:21.608Z,95058.31
2019-01-18T01:36:50.786Z,95058.61
2019-01-18T01:39:20.332Z,95056.44
2019-01-18T01:41:49.504Z,95053.09
2019-01-18T01:44:18.712Z,95056.84
2019-01-18T01:46:47.875Z,95051.02
2019-01-18T01:49:17.049Z,95055.22
2019-01-18T01:51:46.641Z,95053.66
2019-01-18T01:54:15.803Z,95049.55
2019-01-18T01:56:45.334Z,95054.73
2019-01-18T01:59:14.506Z,95054.92
2019-01-18T02:01:43.701Z,95064.41
2019-01-18T02:04:12.872Z,95062.63
2019-01-18T02:06:42.086Z,95066.17
2019-01-18T02:09:11.250Z,95070.48
2019-01-18T02:11:40.782Z,95076.82
2019-01-18T02:14:09.992Z,95082.84
2019-01-18T02:16:39.181Z,95086.76
2019-01-18T02:19:08.383Z,95092.71
2019-01-18T02:21:37.565Z,95091.73
2019-01-18T02:24:06.759Z,95090.47
2019-01-18T02:26:35.930Z,95103.39
2019-01-18T02:29:05.230Z,95101.53
2019-01-18T02:31:34.423Z,95105.38
2019-01-18T02:34:03.648Z,95103.73
2019-01-18T02:36:32.821Z,95103.20
2019-01-18T02:39:01.991Z,95116.06
2019-01-18T02:41:31.201Z,95112.52
2019-01-18T02:44:00.378Z,95116.89
2019-01-18T02:46:29.582Z,95114.42
2019-01-18T02:48:58.769Z,95120.73
2019-01-18T02:51:27.966Z,95118.78
2019-01-18T02:53:57.141Z,95122.45
2019-01-18T02:56:26.690Z,95119.31
2019-01-18T02:58:55.894Z,95113.14
2019-01-18T03:01:25.073Z,95117.50
2019-01-18T03:03:54.277Z,95119.38
2019-01-18T03:06:23.445Z,95116.97
2019-01-18T03:08:52.642Z,95120.87
2019-01-18T03:11:21.824Z,95124.30
2019-01-18T03:13:51.034Z,95124.60
2019-01-18T03:16:20.194Z,95112.21
2019-01-18T03:18:49.370Z,95127.56
2019-01-18T03:21:18.562Z,95116.98
2019-01-18T03:23:47.739Z,95124.27
2019-01-18T03:26:16.940Z,95120.07
2019-01-18T03:28:46.102Z,95120.12
2019-01-18T03:31:15.321Z,95129.25
2019-01-18T03:33:44.861Z,95128.94
2019-01-18T03:36:14.076Z,95133.81
2019-01-18T03:38:43.240Z,95140.51
2019-01-18T03:41:12.404Z,95158.11
2019-01-18T03:43:41.606Z,95154.13
2019-01-18T03:46:10.771Z,95155.87
2019-01-18T03:48:39.967Z,95160.98
2019-01-18T03:51:09.448Z,95165.28
2019-01-18T03:53:38.980Z,95181.91
2019-01-18T03:56:08.150Z,95178.74
2019-01-18T03:58:37.347Z,95180.95
2019-01-18T04:01:06.529Z,95181.91
2019-01-18T04:03:35.730Z,95177.41
2019-01-18T04:06:12.146Z,95190.34
2019-01-18T04:08:41.341Z,95190.70
2019-01-18T04:11:10.508Z,95204.02
2019-01-18T04:13:39.711Z,95204.98
2019-01-18T04:16:08.877Z,95209.63
2019-01-18T04:18:38.052Z,95207.50
2019-01-18T04:21:07.249Z,95202.70
2019-01-18T04:23:36.413Z,95213.98
2019-01-18T04:26:05.629Z,95220.20
2019-01-18T04:28:34.798Z,95222.47
2019-01-18T04:31:04.027Z,95221.31
2019-01-18T04:33:33.211Z,95218.77
2019-01-18T04:36:02.403Z,95222.67
2019-01-18T04:38:31.576Z,95236.58
2019-01-18T04:41:00.782Z,95235.80
2019-01-18T04:43:29.959Z,95244.03
2019-01-18T04:45:59.150Z,95244.56
2019-01-18T04:48:28.355Z,95247.43
2019-01-18T04:50:57.542Z,95247.45
2019-01-18T04:53:26.737Z,95252.84
2019-01-18T04:55:55.914Z,95257.91
2019-01-18T04:58:26.582Z,95258.48
2019-01-18T05:00:56.029Z,95256.77
2019-01-18T05:03:25.199Z,95265.32
2019-01-18T05:05:54.410Z,95264.92
2019-01-18T05:08:23.574Z,95270.43
2019-01-18T05:10:53.191Z,95277.45
2019-01-18T05:13:22.378Z,95285.84
2019-01-18T05:15:51.585Z,95289.88
2019-01-18T05:18:21.093Z,95294.91
2019-01-18T05:20:50.451Z,95305.95
2019-01-18T05:23:19.661Z,95312.59
2019-01-18T05:25:48.861Z,95317.31
2019-01-18T05:28:18.071Z,95317.31
2019-01-18T05:30:47.981Z,95323.38
2019-01-18T05:33:18.212Z,95316.98
2019-01-18T05:35:47.405Z,95328.20
2019-01-18T05:38:16.935Z,95341.78
2019-01-18T05:40:46.116Z,95346.25
2019-01-18T05:43:15.304Z,95342.39
2019-01-18T05:45:44.823Z,95356.58
2019-01-18T05:48:13.991Z,95350.26
2019-01-18T05:50:43.629Z,95354.09
2019-01-18T05:56:02.638Z,95366.67
2019-01-18T05:58:31.828Z,95365.39
2019-01-18T06:01:20.408Z,95368.30
2019-01-18T06:03:49.702Z,95370.97
2019-01-18T06:06:18.911Z,95381.44
2019-01-18T06:08:48.084Z,95368.55
2019-01-18T06:11:17.263Z,95389.18
2019-01-18T06:13:46.483Z,95391.41
2019-01-18T06:16:15.656Z,95390.09
2019-01-18T06:18:44.963Z,95397.95
2019-01-18T06:21:14.145Z,95401.06
2019-01-18T06:23:43.341Z,95395.58
2019-01-18T06:26:12.510Z,95406.96
2019-01-18T06:28:41.707Z,95417.02
2019-01-18T06:34:19.457Z,95416.03
2019-01-18T06:36:48.951Z,95421.13
2019-01-18T06:39:18.149Z,95423.48
2019-01-18T06:42:06.538Z,95433.51
2019-01-18T06:44:35.773Z,95441.17
2019-01-18T06:47:04.946Z,95439.34
2019-01-18T06:49:34.117Z,95440.15
2019-01-18T06:52:03.319Z,95453.14
2019-01-18T06:54:32.483Z,95455.51
2019-01-18T06:57:01.679Z,95457.98
2019-01-18T06:59:30.852Z,95466.10
2019-01-18T07:02:00.046Z,95473.37
2019-01-18T07:04:29.213Z,95474.86
2019-01-18T07:06:58.407Z,95483.55
2019-01-18T07:09:27.573Z,95476.65
2019-01-18T07:11:56.788Z,95480.41
2019-01-18T07:14:25.958Z,95486.91
2019-01-18T07:16:55.158Z,95491.33
2019-01-18T07:19:24.323Z,95492.89
2019-01-18T07:21:53.518Z,95499.64
2019-01-18T07:24:22.692Z,95504.50
2019-01-18T07:26:51.886Z,95517.05
2019-01-18T07:29:21.053Z,95516.58
2019-01-18T07:31:50.281Z,95514.83
2019-01-18T07:34:19.437Z,95521.39
2019-01-18T07:36:48.634Z,95521.52
2019-01-18T07:39:22.361Z,95526.14
2019-01-18T07:41:49.040Z,95524.29
2019-01-18T07:44:18.205Z,95532.90
2019-01-18T07:46:47.395Z,95530.24
2019-01-18T07:49:16.604Z,95540.47
2019-01-18T07:51:45.773Z,95539.86
2019-01-18T07:54:14.941Z,95543.22
2019-01-18T07:56:44.119Z,95554.53
2019-01-18T07:59:13.311Z,95551.38
2019-01-18T08:01:42.495Z,95555.87
2019-01-18T08:04:12.025Z,95558.09
2019-01-18T08:06:41.200Z,95546.09
2019-01-18T08:09:10.388Z,95554.34
2019-01-18T08:11:39.965Z,95560.52
2019-01-18T08:14:09.158Z,95560.23
2019-01-18T08:16:38.326Z,95567.49
2019-01-18T08:19:07.528Z,95569.47
2019-01-18T08:21:36.693Z,95577.22
2019-01-18T08:24:06.256Z,95576.34
2019-01-18T08:26:35.440Z,95581.97
2019-01-18T08:29:04.643Z,95581.64
2019-01-18T08:31:33.807Z,95582.71
2019-01-18T08:34:03.028Z,95590.45
2019-01-18T08:36:32.192Z,95593.78
2019-01-18T08:39:01.386Z,95590.41
2019-01-18T08:41:30.553Z,95603.31
2019-01-18T08:44:18.828Z,95606.27
2019-01-18T08:46:48.121Z,95601.16
2019-01-18T08:49:17.328Z,95605.42
2019-01-18T08:51:46.497Z,95610.87
2019-01-18T08:54:15.980Z,95612.61
2019-01-18T08:56:45.154Z,95618.94
2019-01-18T08:59:14.345Z,95621.89
2019-01-18T09:01:43.518Z,95618.75
2019-01-18T09:04:12.712Z,95610.95
2019-01-18T09:06:41.879Z,95622.91
2019-01-18T09:09:11.068Z,95620.91
2019-01-18T09:11:40.231Z,95628.08
2019-01-18T09:14:09.423Z,95631.08
2019-01-18T09:16:38.964Z,95630.66
2019-01-18T09:19:08.167Z,95638.52
2019-01-18T09:21:37.335Z,95634.55
2019-01-18T09:24:06.794Z,95630.78
2019-01-18T09:26:36.263Z,95643.56
2019-01-18T09:29:05.772Z,95641.37
2019-01-18T09:31:35.275Z,95638.86
2019-01-18T09:34:04.602Z,95644.20
2019-01-18T09:36:33.765Z,95650.30
2019-01-18T09:41:52.758Z,95664.76
2019-01-18T09:44:22.256Z,95655.09
2019-01-18T09:46:51.430Z,95660.45
2019-01-18T09:49:20.623Z,95659.39
2019-01-18T09:51:49.797Z,95661.82
2019-01-18T09:54:19.362Z,95663.58
2019-01-18T09:56:48.538Z,95663.30
2019-01-18T09:59:17.732Z,95659.49
2019-01-18T10:01:49.462Z,95659.45
2019-01-18T10:04:17.799Z,95656.30
2019-01-18T10:06:46.990Z,95669.53
2019-01-18T10:09:16.153Z,95663.83
2019-01-18T10:11:45.786Z,95664.63
2019-01-18T10:14:14.962Z,95659.95
2019-01-18T10:16:44.270Z,95665.34
2019-01-18T10:19:14.124Z,95660.52
2019-01-18T10:21:43.330Z,95657.05
2019-01-18T10:24:12.597Z,95659.41
2019-01-18T10:26:41.872Z,95660.29
2019-01-18T10:29:11.034Z,95653.36
2019-01-18T10:31:40.228Z,95652.55
2019-01-18T10:34:09.422Z,95641.49
2019-01-18T10:36:38.599Z,95640.77
2019-01-18T10:39:47.724Z,95638.36
2019-01-18T10:42:16.897Z,95638.46
2019-01-18T10:44:46.114Z,95640.56
2019-01-18T10:47:15.318Z,95636.92
2019-01-18T10:49:44.481Z,95634.33
2019-01-18T10:52:13.673Z,95639.84
2019-01-18T10:54:42.841Z,95636.08
2019-01-18T10:57:12.412Z,95639.91
2019-01-18T10:59:41.579Z,95640.08
2019-01-18T11:02:10.862Z,95636.97
2019-01-18T11:04:40.034Z,95639.48
2019-01-18T11:07:09.286Z,95638.53
2019-01-18T11:09:38.804Z,95641.30
2019-01-18T11:12:07.973Z,95639.55
2019-01-18T11:14:37.180Z,95640.09
2019-01-18T11:17:06.362Z,95638.08
2019-01-18T11:19:35.554Z,95633.94
2019-01-18T11:24:53.115Z,95629.33
2019-01-18T11:27:22.290Z,95632.17
2019-01-18T11:29:51.479Z,95625.75
2019-01-18T11:32:20.669Z,95627.74
2019-01-18T11:34:50.237Z,95627.81
2019-01-18T11:37:19.430Z,95621.22
2019-01-18T11:39:48.615Z,95616.69
2019-01-18T11:42:17.803Z,95618.10
2019-01-18T11:44:46.968Z,95619.03
2019-01-18T11:47:16.162Z,95614.52
2019-01-18T11:49:45.327Z,95616.23
2019-01-18T11:52:14.530Z,95615.34
2019-01-18T11:54:44.140Z,95612.03
2019-01-18T11:57:14.990Z,95613.09
2019-01-18T11:59:49.030Z,95611.71
2019-01-18T12:02:21.916Z,95604.98
2019-01-18T12:05:05.766Z,95602.49
2019-01-18T12:07:34.934Z,95608.23
2019-01-18T12:12:59.371Z,95595.97
2019-01-18T12:15:29.625Z,95594.48
2019-01-18T12:17:58.821Z,95601.52
2019-01-18T12:20:48.866Z,95593.59
2019-01-18T12:23:36.969Z,95596.62
2019-01-18T12:26:06.160Z,95597.20
2019-01-18T12:28:35.335Z,95593.80
2019-01-18T12:31:04.526Z,95594.73
2019-01-18T12:33:33.721Z,95587.21
2019-01-18T12:36:02.916Z,95587.21
2019-01-18T12:38:32.849Z,95587.21
2019-01-18T12:41:02.030Z,95579.59
2019-01-18T12:43:31.337Z,95578.31
2019-01-18T12:46:00.516Z,95574.34
2019-01-18T12:48:29.710Z,95572.95
2019-01-18T12:50:59.029Z,95581.80
2019-01-18T12:53:29.481Z,95581.00
2019-01-18T12:55:59.142Z,95580.20
2019-01-18T12:58:28.308Z,95578.85
2019-01-18T13:00:57.503Z,95580.33
2019-01-18T13:03:26.724Z,95588.16
2019-01-18T13:05:56.337Z,95586.22
2019-01-18T13:08:25.518Z,95584.75
2019-01-18T13:10:55.106Z,95587.41
2019-01-18T13:13:24.276Z,95577.50
2019-01-18T13:16:31.548Z,95581.12
2019-01-18T13:19:03.843Z,95593.19
2019-01-18T13:21:33.342Z,95581.81
2019-01-18T13:24:02.531Z,95581.88
2019-01-18T13:26:31.802Z,95575.20
2019-01-18T13:29:01.000Z,95576.12
2019-01-18T13:31:30.215Z,95571.47
2019-01-18T13:34:02.991Z,95567.36
2019-01-18T13:36:30.441Z,95559.77
2019-01-18T13:38:59.637Z,95569.23
2019-01-18T13:41:28.914Z,95569.81
2019-01-18T13:43:58.374Z,95568.50
2019-01-18T13:46:27.574Z,95566.17
2019-01-18T13:48:56.747Z,95573.26
2019-01-18T13:51:25.937Z,95571.27
2019-01-18T13:54:14.112Z,95569.78
2019-01-18T13:56:43.306Z,95576.02
2019-01-18T13:59:12.477Z,95574.94
2019-01-18T14:01:41.693Z,95578.80
2019-01-18T14:04:11.002Z,95571.77
2019-01-18T14:06:40.227Z,95581.83
2019-01-18T14:09:10.424Z,95583.79
2019-01-18T14:11:39.609Z,95586.81
2019-01-18T14:14:08.777Z,95582.01
2019-01-18T14:16:37.977Z,95583.95
2019-01-18T14:19:07.144Z,95591.11
2019-01-18T14:21:36.343Z,95587.16
2019-01-18T14:24:05.508Z,95583.66
2019-01-18T14:26:34.707Z,95587.12
2019-01-18T14:29:04.290Z,95589.80
2019-01-18T14:31:33.809Z,95590.92
2019-01-18T14:34:03.020Z,95587.58
2019-01-18T14:36:32.195Z,95580.69
2019-01-18T14:39:02.016Z,95585.34
2019-01-18T14:41:31.333Z,95586.20
2019-01-18T14:44:00.496Z,95588.10
2019-01-18T14:46:29.664Z,95586.12
2019-01-18T14:48:58.839Z,95584.59
2019-01-18T14:52:07.424Z,95583.94
2019-01-18T14:54:36.631Z,95593.73
2019-01-18T14:57:06.132Z,95595.70
2019-01-18T14:59:35.326Z,95595.79
2019-01-18T15:02:04.598Z,95599.80
2019-01-18T15:04:33.803Z,95598.34
2019-01-18T15:07:02.966Z,95606.41
2019-01-18T15:09:32.140Z,95603.34
2019-01-18T15:12:01.324Z,95608.73
2019-01-18T15:14:30.500Z,95609.23
2019-01-18T15:16:59.700Z,95614.38
2019-01-18T15:19:28.883Z,95609.06
2019-01-18T15:21:58.111Z,95614.77
2019-01-18T15:24:27.309Z,95618.63
2019-01-18T15:26:56.813Z,95616.16
2019-01-18T15:29:26.420Z,95623.28
2019-01-18T15:31:55.585Z,95620.30
2019-01-18T15:34:24.854Z,95618.37
2019-01-18T15:36:53.981Z,95617.87
2019-01-18T15:39:23.154Z,95612.03
2019-01-18T15:41:52.348Z,95609.70
2019-01-18T15:44:21.517Z,95607.62
2019-01-18T15:46:51.009Z,95607.86
2019-01-18T15:49:20.176Z,95606.25
2019-01-18T15:51:49.379Z,95610.05
2019-01-18T15:54:18.546Z,95610.48
2019-01-18T15:56:47.736Z,95608.16
2019-01-18T15:59:16.924Z,95608.69
2019-01-18T16:01:46.401Z,95615.00
2019-01-18T16:04:15.902Z,95609.23
2019-01-18T16:06:45.109Z,95609.38
2019-01-18T16:09:14.646Z,95602.92
2019-01-18T16:12:02.926Z,95606.77
2019-01-18T16:14:32.421Z,95606.61
2019-01-18T16:17:06.529Z,95610.48
2019-01-18T16:19:36.075Z,95613.50
2019-01-18T16:22:05.309Z,95612.39
2019-01-18T16:24:34.667Z,95615.85
2019-01-18T16:27:04.001Z,95615.10
2019-01-18T16:29:33.181Z,95613.28
2019-01-18T16:32:02.485Z,95613.91
2019-01-18T16:34:31.699Z,95612.17
2019-01-18T16:37:01.378Z,95611.64
2019-01-18T16:42:07.577Z,95605.59
2019-01-18T16:44:37.139Z,95607.32
2019-01-18T16:47:06.437Z,95603.47
2019-01-18T16:49:36.066Z,95606.79
2019-01-18T16:52:05.779Z,95604.70
2019-01-18T16:54:35.147Z,95603.47
2019-01-18T16:57:04.447Z,95602.27
2019-01-18T16:59:33.617Z,95607.71
2019-01-18T17:02:02.846Z,95598.12
2019-01-18T17:04:32.015Z,95599.80
2019-01-18T17:07:01.578Z,95604.09
2019-01-18T17:09:30.770Z,95603.27
2019-01-18T17:11:59.973Z,95600.83
2019-01-18T17:14:29.183Z,95605.83
2019-01-18T17:16:58.380Z,95606.50
2019-01-18T17:19:27.578Z,95607.25
2019-01-18T17:21:56.782Z,95600.47
2019-01-18T17:24:25.983Z,95601.01
2019-01-18T17:26:55.184Z,95602.82
2019-01-18T17:29:24.363Z,95609.16
2019-01-18T17:31:53.593Z,95606.20
2019-01-18T17:34:22.785Z,95611.55
2019-01-18T17:36:55.769Z,95613.84
2019-01-18T17:40:03.020Z,95611.02
2019-01-18T17:42:42.716Z,95606.33
2019-01-18T17:45:50.442Z,95610.35
2019-01-18T17:48:57.709Z,95604.16
2019-01-18T17:51:50.709Z,95613.45
2019-01-18T17:54:58.236Z,95603.55
2019-01-18T17:58:05.585Z,95606.95
2019-01-18T18:01:12.864Z,95607.48
2019-01-18T18:04:20.168Z,95608.63
2019-01-18T18:07:27.440Z,95606.28
2019-01-18T18:10:34.727Z,95608.68
2019-01-18T18:13:43.173Z,95617.75
2019-01-18T18:16:50.728Z,95608.98
2019-01-18T18:19:57.987Z,95600.84
2019-01-18T18:23:05.333Z,95599.86
2019-01-18T18:25:47.113Z,95603.27
2019-01-18T18:28:54.514Z,95608.68
2019-01-18T18:32:01.891Z,95606.64
2019-01-18T18:35:09.217Z,95607.59
2019-01-18T18:38:16.834Z,95614.12
2019-01-18T18:41:09.960Z,95605.65
2019-01-18T18:44:17.303Z,95607.98
2019-01-18T18:47:13.337Z,95597.87
2019-01-18T18:50:20.600Z,95594.25
2019-01-18T18:53:27.926Z,95605.88
2019-01-18T18:56:23.423Z,95601.94
2019-01-18T18:59:30.784Z,95599.68
2019-01-18T19:02:38.125Z,95593.56
2019-01-18T19:05:31.349Z,95598.83
2019-01-18T19:08:38.727Z,95601.79
2019-01-18T19:11:45.996Z,95601.84
2019-01-18T19:14:53.554Z,95604.13
2019-01-18T19:18:00.835Z,95599.70
2019-01-18T19:21:08.147Z,95601.27
2019-01-18T19:24:15.420Z,95602.46
2019-01-18T19:27:22.739Z,95591.55
2019-01-18T19:30:30.091Z,95591.41
2019-01-18T19:33:37.391Z,95590.05
2019-01-18T19:36:44.957Z,95591.34
2019-01-18T19:39:36.923Z,95586.13
2019-01-18T19:42:44.201Z,95594.75
2019-01-18T19:45:40.683Z,95594.16
2019-01-18T19:48:47.956Z,95592.13
2019-01-18T19:51:55.477Z,95596.05
2019-01-18T19:54:46.217Z,95596.73
2019-01-18T19:57:53.485Z,95599.44
2019-01-18T20:01:00.734Z,95596.36
2019-01-18T20:04:11.614Z,95600.37
2019-01-18T20:07:16.978Z,95594.11
2019-01-18T20:10:24.289Z,95594.52
2019-01-18T20:13:22.094Z,95585.03
2019-01-18T20:16:29.342Z,95585.23
2019-01-18T20:19:29.701Z,95584.62
2019-01-18T20:22:31.842Z,95578.12
2019-01-18T20:25:22.965Z,95577.64
2019-01-18T20:28:30.252Z,95572.42
2019-01-18T20:31:37.499Z,95570.19
2019-01-18T20:34:44.854Z,95573.42
2019-01-18T20:37:52.133Z,95565.53
2019-01-18T20:40:59.673Z,95570.32
2019-01-18T20:44:06.945Z,95561.98
2019-01-18T20:47:14.195Z,95563.34
2019-01-18T20:50:09.964Z,95559.65
2019-01-18T20:53:17.205Z,95563.49
2019-01-18T20:56:24.479Z,95565.90
2019-01-18T20:59:25.312Z,95559.05
2019-01-18T21:02:32.574Z,95562.26
2019-01-18T21:05:26.922Z,95557.81
2019-01-18T21:08:34.351Z,95562.26
2019-01-18T21:11:26.214Z,95561.61
2019-01-18T21:14:21.490Z,95562.47
2019-01-18T21:17:28.814Z,95559.25
2019-01-18T21:20:23.445Z,95555.25
2019-01-18T21:23:30.697Z,95553.09
2019-01-18T21:26:08.456Z,95558.13
2019-01-18T21:29:15.730Z,95554.78
2019-01-18T21:32:08.170Z,95548.53
2019-01-18T21:35:03.357Z,95548.38
2019-01-18T21:37:56.952Z,95548.38
2019-01-18T21:41:04.218Z,95545.58
2019-01-18T21:44:11.464Z,95552.66
2019-01-18T21:47:18.787Z,95551.83
2019-01-18T21:50:11.929Z,95553.11
2019-01-18T21:53:05.585Z,95543.63
2019-01-18T21:56:07.374Z,95546.30
2019-01-18T21:59:00.363Z,95542.70
2019-01-18T22:01:37.894Z,95544.59
2019-01-18T22:04:45.197Z,95544.78
2019-01-18T22:07:52.730Z,95542.59
2019-01-18T22:11:00.288Z,95541.75
2019-01-18T22:14:07.578Z,95535.42
2019-01-18T22:17:11.134Z,95533.14
2019-01-18T22:20:18.405Z,95532.83
2019-01-18T22:23:05.042Z,95529.66
2019-01-18T22:26:12.582Z,95530.95
2019-01-18T22:29:19.830Z,95531.62
2019-01-18T22:32:27.446Z,95528.59
2019-01-18T22:35:03.888Z,95528.34
2019-01-18T22:38:04.483Z,95527.47
2019-01-18T22:41:11.758Z,95523.55
2019-01-18T22:43:49.590Z,95516.31
2019-01-18T22:46:56.862Z,95517.03
2019-01-18T22:49:56.595Z,95515.62
2019-01-18T22:53:03.870Z,95515.55
2019-01-18T22:56:06.207Z,95510.82
2019-01-18T22:59:01.076Z,95504.87
2019-01-18T23:02:03.770Z,95500.42
2019-01-18T23:05:11.038Z,95499.42
2019-01-18T23:08:18.319Z,95492.44
2019-01-18T23:11:25.634Z,95489.03
2019-01-18T23:14:28.348Z,95483.59
2019-01-18T23:17:35.635Z,95481.75
2019-01-18T23:20:42.909Z,95480.37
2019-01-18T23:23:50.163Z,95478.95
2019-01-18T23:26:57.705Z,95472.03
2019-01-18T23:29:59.278Z,95472.03
2019-01-18T23:33:06.631Z,95462.45
2019-01-18T23:35:58.309Z,95464.13
2019-01-18T23:39:05.840Z,95458.68
2019-01-18T23:41:57.981Z,95455.92
2019-01-18T23:45:05.515Z,95454.77
2019-01-18T23:48:01.432Z,95454.56
2019-01-18T23:51:08.746Z,95455.61
2019-01-18T23:54:15.997Z,95448.66
2019-01-18T23:57:08.419Z,95447.98
